Time;durP1;ratioP1;P1;durP2;ratioP2;P2;SDS_P1;SDS_P2;PMS_P1;PMS_P2;Temp;Humidity;BMP_temperature;BMP_pressure;BME280_temperature;BME280_humidity;BME280_pressure;Samples;Min_cycle;Max_cycle;Signal;HPM_P1;HPM_P2
2022/08/01 16:29:29;;;;;;;2.97;0.70;;;32.20;36.30;;;;;;2294814;53;21068;-79
2022/08/01 16:31:56;;;;;;;1.58;0.70;;;32.00;36.30;;;;;;2306074;54;21078;-76
2022/08/01 16:34:22;;;;;;;2.00;0.70;;;31.90;36.50;;;;;;2305590;54;20967;-73
2022/08/01 16:36:49;;;;;;;2.00;0.95;;;31.80;36.60;;;;;;2305580;57;21003;-78
2022/08/01 16:39:15;;;;;;;1.83;0.60;;;31.70;36.80;;;;;;2346286;54;21082;-77
2022/08/01 16:41:44;;;;;;;1.48;0.60;;;31.60;36.90;;;;;;2291457;58;21165;-79
2022/08/01 16:44:11;;;;;;;1.52;0.60;;;31.50;37.20;;;;;;2284588;54;21012;-75
2022/08/01 16:46:37;;;;;;;2.47;0.60;;;31.40;37.40;;;;;;2510569;53;20941;-76
2022/08/01 16:49:05;;;;;;;0.70;0.40;;;31.40;37.50;;;;;;2299467;54;20974;-76
2022/08/01 16:51:34;;;;;;;1.48;0.43;;;31.30;37.70;;;;;;2292668;54;21825;-76
2022/08/01 16:54:01;;;;;;;1.77;0.65;;;31.20;37.80;;;;;;2317048;54;21735;-74
2022/08/01 16:56:27;;;;;;;2.70;0.60;;;31.20;38.20;;;;;;2340196;54;20958;-74
2022/08/01 16:58:54;;;;;;;2.10;0.60;;;31.10;38.60;;;;;;2341516;54;20958;-74
2022/08/01 17:01:23;;;;;;;5.03;1.02;;;31.10;39.20;;;;;;2532932;53;21541;-74
2022/08/01 17:03:49;;;;;;;3.03;0.85;;;30.90;39.50;;;;;;2320898;55;20987;-75
2022/08/01 17:06:15;;;;;;;1.67;0.60;;;30.70;39.20;;;;;;2310403;54;21456;-75
2022/08/01 17:08:45;;;;;;;3.37;0.60;;;30.40;39.30;;;;;;2302819;55;21006;-77
2022/08/01 17:11:11;;;;;;;1.62;0.40;;;30.10;39.40;;;;;;2325676;54;21015;-77
2022/08/01 17:13:38;;;;;;;2.80;0.62;;;29.60;39.80;;;;;;2487756;53;22212;-79
2022/08/01 17:16:04;;;;;;;1.95;0.60;;;29.20;40.60;;;;;;2339762;54;20963;-77
2022/08/01 17:18:30;;;;;;;4.12;0.60;;;28.90;41.40;;;;;;2330585;53;21003;-77
2022/08/01 17:20:57;;;;;;;1.25;0.50;;;28.50;41.90;;;;;;2375852;53;21956;-78
2022/08/01 17:23:23;;;;;;;1.37;0.40;;;28.20;42.30;;;;;;2314557;53;21066;-80
2022/08/01 17:25:50;;;;;;;1.83;0.52;;;27.90;42.80;;;;;;2392784;53;20907;-79
2022/08/01 17:28:17;;;;;;;2.53;0.60;;;27.70;43.30;;;;;;2327984;53;20999;-77
2022/08/01 17:30:43;;;;;;;1.08;0.50;;;27.40;43.60;;;;;;2328261;54;21003;-77
2022/08/01 17:33:10;;;;;;;1.15;0.40;;;27.20;44.00;;;;;;2326744;53;21026;-77
2022/08/01 17:35:37;;;;;;;1.45;0.30;;;27.00;44.40;;;;;;2389342;53;21013;-78
2022/08/01 17:38:04;;;;;;;0.95;0.43;;;26.80;44.50;;;;;;2333982;54;21004;-79
2022/08/01 17:40:31;;;;;;;0.50;0.20;;;26.50;44.60;;;;;;2338099;54;21476;-78
2022/08/01 17:43:05;;;;;;;1.00;0.40;;;26.30;44.60;;;;;;2574048;53;20973;-77
2022/08/01 17:45:32;;;;;;;0.85;0.45;;;26.10;45.00;;;;;;2327076;53;20963;-78
2022/08/01 17:48:02;;;;;;;0.65;0.30;;;25.90;45.50;;;;;;2325201;53;20952;-77
2022/08/01 17:50:28;;;;;;;0.93;0.30;;;25.70;45.70;;;;;;2377400;53;20968;-77
2022/08/01 17:52:55;;;;;;;0.90;0.40;;;25.50;45.90;;;;;;2339464;53;20948;-78
2022/08/01 17:55:21;;;;;;;0.75;0.35;;;25.40;46.30;;;;;;2338517;54;20900;-79
2022/08/01 17:57:48;;;;;;;1.02;0.40;;;25.20;46.60;;;;;;2338532;54;21028;-78
2022/08/01 18:00:16;;;;;;;1.58;0.40;;;25.10;47.40;;;;;;2339174;54;21002;-78
2022/08/01 18:02:45;;;;;;;0.75;0.32;;;24.90;47.70;;;;;;2338743;54;20916;-77
2022/08/01 18:05:12;;;;;;;1.55;0.50;;;24.80;48.10;;;;;;2339056;54;20932;-76
2022/08/01 18:07:38;;;;;;;0.95;0.40;;;24.70;48.40;;;;;;2318061;53;21016;-75
2022/08/01 18:10:06;;;;;;;2.05;0.82;;;24.60;48.50;;;;;;2338948;54;20924;-80
2022/08/01 18:12:32;;;;;;;2.30;0.60;;;24.50;48.70;;;;;;2355124;53;20975;-77
2022/08/01 18:15:03;;;;;;;5.05;0.60;;;24.40;48.80;;;;;;2338936;54;20912;-75
2022/08/01 18:17:29;;;;;;;1.35;0.52;;;24.40;49.20;;;;;;2340455;54;20980;-80
2022/08/01 18:19:56;;;;;;;1.55;0.47;;;24.30;49.60;;;;;;2401674;53;20964;-77
2022/08/01 18:22:22;;;;;;;1.50;0.70;;;24.20;50.00;;;;;;2338701;54;20859;-77
2022/08/01 18:24:49;;;;;;;1.75;0.65;;;24.20;50.30;;;;;;2337796;54;20948;-76
2022/08/01 18:27:15;;;;;;;1.65;0.70;;;24.10;50.30;;;;;;2311449;53;20940;-75
2022/08/01 18:29:44;;;;;;;1.35;0.50;;;24.10;50.60;;;;;;2339414;53;21064;-78
2022/08/01 18:32:10;;;;;;;2.33;1.00;;;24.00;50.60;;;;;;2356540;53;20997;-76
2022/08/01 18:34:38;;;;;;;1.65;0.70;;;24.00;50.90;;;;;;2315195;54;20959;-76
2022/08/01 18:37:05;;;;;;;1.70;0.62;;;24.00;51.50;;;;;;2301500;55;20979;-76
2022/08/01 18:39:31;;;;;;;1.77;0.77;;;23.90;51.70;;;;;;2315619;54;21034;-76
2022/08/01 18:41:59;;;;;;;1.87;0.60;;;23.90;52.00;;;;;;2339459;54;21408;-76
2022/08/01 18:44:28;;;;;;;2.40;0.52;;;23.90;52.10;;;;;;2338840;54;20978;-76
2022/08/01 18:46:55;;;;;;;1.92;0.55;;;23.90;52.30;;;;;;2338688;54;21468;-76
2022/08/01 18:49:21;;;;;;;1.42;0.60;;;23.90;52.50;;;;;;2311739;54;20995;-77
2022/08/01 18:51:47;;;;;;;2.10;0.68;;;23.80;52.70;;;;;;2523226;53;20969;-78
2022/08/01 18:54:14;;;;;;;0.80;0.40;;;23.80;52.90;;;;;;2338531;54;20978;-78
2022/08/01 18:56:41;;;;;;;1.02;0.45;;;23.80;53.20;;;;;;2339002;54;20990;-76
2022/08/01 18:59:08;;;;;;;1.67;0.60;;;23.80;53.30;;;;;;2311826;54;21012;-76
2022/08/01 19:01:38;;;;;;;1.25;0.40;;;23.80;53.40;;;;;;2309950;54;21052;-78
2022/08/01 19:04:04;;;;;;;1.60;0.62;;;23.80;53.60;;;;;;2318500;54;21520;-78
2022/08/01 19:06:31;;;;;;;1.23;0.50;;;23.80;53.70;;;;;;2311466;54;20953;-77
2022/08/01 19:08:59;;;;;;;1.37;0.40;;;23.80;53.70;;;;;;2368660;54;20917;-81
2022/08/01 19:11:29;;;;;;;1.12;0.50;;;23.80;53.90;;;;;;2335472;54;21062;-77
2022/08/01 19:13:56;;;;;;;0.70;0.40;;;23.80;54.00;;;;;;2563884;52;21381;-73
2022/08/01 19:16:22;;;;;;;1.23;0.50;;;23.80;54.20;;;;;;2305671;54;20956;-78
2022/08/01 19:18:50;;;;;;;1.70;0.60;;;23.80;54.40;;;;;;2328986;54;20971;-78
2022/08/01 19:21:17;;;;;;;1.40;0.60;;;23.80;54.50;;;;;;2291788;55;20977;-77
2022/08/01 19:26:28;;;;;;;1.17;0.50;;;23.80;54.70;;;;;;2338668;54;20935;-77
2022/08/01 19:29:01;;;;;;;2.03;0.70;;;23.80;54.70;;;;;;2338963;54;20930;-76
2022/08/01 19:31:28;;;;;;;2.53;0.60;;;23.80;55.40;;;;;;2420202;53;20958;-75
2022/08/01 19:33:56;;;;;;;1.80;0.70;;;23.80;54.90;;;;;;2338675;54;20942;-77
2022/08/01 19:36:22;;;;;;;2.30;1.00;;;23.80;55.00;;;;;;2436887;53;21896;-78
2022/08/01 19:38:49;;;;;;;2.40;1.00;;;23.80;55.10;;;;;;2308497;54;21011;-75
2022/08/01 19:41:16;;;;;;;2.70;0.90;;;23.80;55.10;;;;;;2337771;54;20979;-78
2022/08/01 19:43:44;;;;;;;1.70;0.75;;;23.80;55.10;;;;;;2334072;54;20933;-77
2022/08/01 19:46:12;;;;;;;2.12;0.70;;;23.80;55.10;;;;;;2340307;53;20930;-77
2022/08/01 19:48:39;;;;;;;2.05;0.80;;;23.80;55.10;;;;;;2337887;54;20974;-78
2022/08/01 19:51:06;;;;;;;2.05;0.80;;;23.80;55.20;;;;;;2342395;53;21442;-77
2022/08/01 19:53:36;;;;;;;2.17;0.70;;;23.80;55.20;;;;;;2370037;53;20962;-79
2022/08/01 19:56:05;;;;;;;1.52;0.60;;;23.70;55.30;;;;;;2313390;54;20927;-77
2022/08/01 19:58:41;;;;;;;1.48;0.55;;;23.70;55.20;;;;;;2309915;54;20950;-76
2022/08/01 20:01:08;;;;;;;1.20;0.50;;;23.70;55.20;;;;;;2338509;54;21041;-77
2022/08/01 20:03:35;;;;;;;1.20;0.60;;;23.70;55.20;;;;;;2339009;54;21543;-81
2022/08/01 20:06:03;;;;;;;1.10;0.57;;;23.70;55.30;;;;;;2338670;54;21412;-80
2022/08/01 20:08:34;;;;;;;2.53;0.68;;;23.60;55.30;;;;;;2339304;54;20934;-76
2022/08/01 20:11:01;;;;;;;2.40;0.57;;;23.70;55.70;;;;;;2326507;54;20918;-77
2022/08/01 20:13:33;;;;;;;1.55;0.60;;;23.60;55.40;;;;;;2324336;54;20926;-76
2022/08/01 20:15:59;;;;;;;1.33;0.52;;;23.60;55.50;;;;;;2338884;54;21488;-77
2022/08/01 20:18:26;;;;;;;1.62;0.60;;;23.60;55.70;;;;;;2311977;54;20923;-76
2022/08/01 20:20:53;;;;;;;1.95;0.50;;;23.60;55.80;;;;;;2339035;54;20947;-80
2022/08/01 20:23:21;;;;;;;1.08;0.40;;;23.50;55.80;;;;;;2338969;54;20982;-76
2022/08/01 20:25:49;;;;;;;1.55;0.40;;;23.50;56.00;;;;;;2312722;54;21011;-77
2022/08/01 20:28:17;;;;;;;1.35;0.50;;;23.50;56.10;;;;;;2337564;54;20978;-77
2022/08/01 20:30:45;;;;;;;2.00;0.75;;;23.50;56.10;;;;;;2309548;54;21059;-77
2022/08/01 20:33:11;;;;;;;1.35;0.60;;;23.50;56.20;;;;;;2338712;54;20914;-74
2022/08/01 20:35:39;;;;;;;1.12;0.45;;;23.50;56.10;;;;;;2430644;53;21009;-74
2022/08/01 20:38:07;;;;;;;1.12;0.55;;;23.50;56.10;;;;;;2338504;54;20914;-75
2022/08/01 20:40:33;;;;;;;1.23;0.60;;;23.50;56.20;;;;;;2312128;54;21789;-77
2022/08/01 20:43:00;;;;;;;1.60;0.60;;;23.50;56.30;;;;;;2475527;53;21010;-76
2022/08/01 20:45:26;;;;;;;1.35;0.57;;;23.50;56.40;;;;;;2327715;54;21040;-77
2022/08/01 20:47:53;;;;;;;1.17;0.55;;;23.50;56.40;;;;;;2322941;54;21471;-75
2022/08/01 20:53:05;;;;;;;0.60;0.30;;;23.50;56.50;;;;;;2338569;54;20962;-76
2022/08/01 20:55:40;;;;;;;1.77;0.65;;;23.40;56.40;;;;;;2338125;54;21752;-75
2022/08/01 20:58:07;;;;;;;1.45;0.60;;;23.40;56.70;;;;;;2334593;54;21849;-80
2022/08/01 21:00:33;;;;;;;1.40;0.60;;;23.40;56.50;;;;;;2338493;54;21037;-75
2022/08/01 21:03:22;;;;;;;0.55;0.32;;;23.40;56.50;;;;;;2338129;54;21398;-75
2022/08/01 21:06:02;;;;;;;1.62;0.50;;;23.40;57.50;;;;;;2471080;53;21039;-74
2022/08/01 21:08:39;;;;;;;0.60;0.40;;;23.40;56.80;;;;;;2320777;54;22404;-72
2022/08/01 21:11:06;;;;;;;1.83;0.50;;;23.30;56.80;;;;;;2338684;54;20938;-78
2022/08/01 21:13:40;;;;;;;0.98;0.50;;;23.30;56.50;;;;;;2338386;54;21065;-75
2022/08/01 21:16:10;;;;;;;2.08;0.50;;;23.30;57.00;;;;;;2312602;54;20994;-75
2022/08/01 21:18:38;;;;;;;1.98;0.50;;;23.30;56.60;;;;;;2431210;53;20986;-75
2022/08/01 21:22:31;;;;;;;2.00;0.50;;;23.20;56.50;;;;;;2329706;54;20923;-76
2022/08/01 21:25:05;;;;;;;0.90;0.40;;;23.20;57.00;;;;;;2338826;54;21032;-76
2022/08/01 21:27:33;;;;;;;0.80;0.50;;;23.20;56.80;;;;;;2338840;54;21880;-76
2022/08/01 21:30:04;;;;;;;1.42;0.50;;;23.20;56.60;;;;;;2339050;54;21891;-74
2022/08/01 21:32:32;;;;;;;2.80;0.52;;;23.20;56.60;;;;;;2339158;54;21585;-75
2022/08/01 21:34:58;;;;;;;1.05;0.50;;;23.10;56.60;;;;;;2312625;54;20997;-75
2022/08/01 21:37:26;;;;;;;1.70;0.60;;;23.10;56.60;;;;;;2338728;54;20974;-76
2022/08/01 21:39:55;;;;;;;1.33;0.60;;;23.10;56.60;;;;;;2370025;53;21527;-77
2022/08/01 21:42:24;;;;;;;1.02;0.47;;;23.00;56.60;;;;;;2338397;54;20950;-75
2022/08/01 21:44:51;;;;;;;1.73;0.52;;;23.00;56.70;;;;;;2338511;54;20986;-76
2022/08/01 21:47:17;;;;;;;0.62;0.32;;;23.00;56.70;;;;;;2430868;53;21688;-74
2022/08/01 21:49:44;;;;;;;0.93;0.50;;;23.00;56.70;;;;;;2338969;54;20969;-75
2022/08/01 21:52:15;;;;;;;1.33;0.50;;;23.00;56.80;;;;;;2373268;53;20975;-75
2022/08/01 21:57:58;;;;;;;0.80;0.50;;;22.90;56.80;;;;;;2323310;54;20938;-75
2022/08/01 22:00:28;;;;;;;0.90;0.37;;;22.90;57.10;;;;;;2342709;54;20974;-75
2022/08/01 22:03:48;;;;;;;0.65;0.30;;;22.90;56.60;;;;;;2330988;54;20926;-76
2022/08/01 22:06:15;;;;;;;1.55;0.57;;;22.80;57.10;;;;;;2338919;54;21032;-75
2022/08/01 22:08:50;;;;;;;2.00;0.60;;;22.80;56.60;;;;;;2329683;54;20916;-74
2022/08/01 22:11:27;;;;;;;1.25;0.50;;;22.80;56.90;;;;;;2391838;53;21717;-76
2022/08/01 22:13:57;;;;;;;1.27;0.50;;;22.70;56.90;;;;;;2339052;54;21010;-75
2022/08/01 22:16:24;;;;;;;0.65;0.37;;;22.70;56.80;;;;;;2316720;54;20945;-75
2022/08/01 22:18:51;;;;;;;0.73;0.40;;;22.70;56.90;;;;;;2320573;54;21507;-75
2022/08/01 22:21:17;;;;;;;1.48;0.55;;;22.60;56.90;;;;;;2346499;54;20965;-74
2022/08/01 22:23:44;;;;;;;1.00;0.50;;;22.60;56.90;;;;;;2345083;53;21097;-75
2022/08/01 22:26:11;;;;;;;1.23;0.43;;;22.60;56.90;;;;;;2349847;53;20935;-75
2022/08/01 22:28:38;;;;;;;0.98;0.50;;;22.60;57.00;;;;;;2332040;54;20975;-75
2022/08/01 22:31:07;;;;;;;1.08;0.50;;;22.50;57.00;;;;;;2560954;53;20934;-76
2022/08/01 22:33:37;;;;;;;1.12;0.50;;;22.50;57.10;;;;;;2514964;53;20990;-75
2022/08/01 22:36:04;;;;;;;1.85;0.50;;;22.50;57.30;;;;;;2385411;54;21837;-76
2022/08/01 22:38:32;;;;;;;1.30;0.60;;;22.40;57.10;;;;;;2439873;53;20987;-75
2022/08/01 22:41:08;;;;;;;1.65;0.60;;;22.40;57.10;;;;;;2582173;53;20998;-74
2022/08/01 22:44:02;;;;;;;0.90;0.47;;;22.40;57.40;;;;;;2339571;54;20942;-76
2022/08/01 22:46:39;;;;;;;1.85;0.60;;;22.40;57.70;;;;;;2317022;54;20970;-74
2022/08/01 22:50:38;;;;;;;1.05;0.43;;;22.40;57.40;;;;;;2339141;54;20918;-74
2022/08/01 22:54:15;;;;;;;1.02;0.50;;;22.30;57.60;;;;;;2339688;54;20998;-75
2022/08/01 22:56:43;;;;;;;1.95;0.30;;;22.30;57.70;;;;;;2338999;54;21710;-75
2022/08/01 22:59:19;;;;;;;1.08;0.50;;;22.30;57.10;;;;;;2475988;53;20991;-75
2022/08/01 23:01:49;;;;;;;1.52;0.50;;;22.30;57.60;;;;;;2334963;54;21069;-75
2022/08/01 23:04:21;;;;;;;0.90;0.52;;;22.30;57.30;;;;;;2449974;53;20954;-75
2022/08/01 23:06:49;;;;;;;1.55;0.60;;;22.30;57.50;;;;;;2338445;54;21045;-75
2022/08/01 23:09:16;;;;;;;0.77;0.40;;;22.20;57.30;;;;;;2435872;53;21531;-74
2022/08/01 23:11:43;;;;;;;0.93;0.45;;;22.20;57.30;;;;;;2328383;54;20954;-74
2022/08/01 23:14:12;;;;;;;1.08;0.50;;;22.20;57.40;;;;;;2359821;53;21757;-74
2022/08/01 23:16:42;;;;;;;1.52;0.60;;;22.10;57.50;;;;;;2338677;54;20939;-75
2022/08/01 23:19:10;;;;;;;1.30;0.60;;;22.10;57.50;;;;;;2336733;54;20953;-75
2022/08/01 23:21:37;;;;;;;1.20;0.60;;;22.10;57.50;;;;;;2312992;54;20997;-75
2022/08/01 23:24:07;;;;;;;1.52;0.60;;;22.10;57.50;;;;;;2329286;54;20962;-75
2022/08/01 23:26:33;;;;;;;1.33;0.60;;;22.00;57.40;;;;;;2501028;53;20982;-75
2022/08/01 23:29:02;;;;;;;0.93;0.45;;;22.00;57.50;;;;;;2532242;53;20938;-76
2022/08/01 23:31:29;;;;;;;1.17;0.55;;;22.00;57.50;;;;;;2355411;53;21411;-76
2022/08/01 23:33:56;;;;;;;1.45;0.50;;;22.00;57.60;;;;;;2353996;54;21041;-75
2022/08/01 23:36:23;;;;;;;2.87;0.55;;;21.90;57.50;;;;;;2323165;54;20925;-74
2022/08/01 23:38:49;;;;;;;1.55;0.50;;;21.90;57.50;;;;;;2311716;54;20933;-75
2022/08/01 23:41:25;;;;;;;1.17;0.45;;;21.90;57.60;;;;;;2311541;54;20973;-74
2022/08/01 23:43:51;;;;;;;1.10;0.52;;;21.80;57.60;;;;;;2318904;54;21064;-77
2022/08/01 23:46:18;;;;;;;2.28;0.62;;;21.80;57.80;;;;;;2302030;54;20946;-75
2022/08/01 23:48:44;;;;;;;2.30;0.60;;;21.80;58.30;;;;;;2433226;53;21002;-74
2022/08/01 23:51:14;;;;;;;1.12;0.50;;;21.80;57.80;;;;;;2313205;54;21471;-75
2022/08/01 23:53:48;;;;;;;0.98;0.40;;;21.70;57.80;;;;;;2402661;53;21011;-75
2022/08/01 23:56:15;;;;;;;1.42;0.60;;;21.70;58.50;;;;;;2329899;54;20977;-75
2022/08/01 23:58:45;;;;;;;0.95;0.40;;;21.70;58.00;;;;;;2573418;53;20925;-74
